createdAt,value
2022-09-12T00:01:17.034Z,86.53
2022-09-12T00:03:44.228Z,86.53
2022-09-12T00:06:23.639Z,86.58
2022-09-12T00:08:54.589Z,86.78
2022-09-12T00:11:22.386Z,86.61
2022-09-12T00:13:50.445Z,86.73
2022-09-12T00:16:22.885Z,86.82
2022-09-12T00:18:51.358Z,87.01
2022-09-12T00:21:19.412Z,86.97
2022-09-12T00:23:47.472Z,87.08
2022-09-12T00:26:18.548Z,87.22
2022-09-12T00:28:46.913Z,87.34
2022-09-12T00:31:24.001Z,87.41
2022-09-12T00:33:52.608Z,87.17
2022-09-12T00:36:24.334Z,87.37
2022-09-12T00:38:52.337Z,87.76
2022-09-12T00:41:31.488Z,88.14
2022-09-12T00:44:21.207Z,88.04
2022-09-12T00:46:56.815Z,87.98
2022-09-12T00:49:40.574Z,88.18
2022-09-12T00:52:34.751Z,88.39
2022-09-12T00:55:12.971Z,88.14
2022-09-12T00:57:49.781Z,88.27
2022-09-12T01:00:24.417Z,88.09
2022-09-12T01:03:07.836Z,88.38
2022-09-12T01:05:40.640Z,88.37
2022-09-12T01:08:07.958Z,88.26
2022-09-12T01:10:38.413Z,88.74
2022-09-12T01:13:09.567Z,88.45
2022-09-12T01:15:40.883Z,88.33
2022-09-12T01:18:27.512Z,88.54
2022-09-12T01:21:21.500Z,88.39
2022-09-12T01:24:46.961Z,88.64
2022-09-12T01:27:29.254Z,89.01
2022-09-12T01:30:05.272Z,89.22
2022-09-12T01:33:07.660Z,89.43
2022-09-12T01:36:03.435Z,89.52
2022-09-12T01:38:43.378Z,90.02
2022-09-12T01:41:53.926Z,90.18
2022-09-12T01:45:00.188Z,89.78
2022-09-12T01:48:20.413Z,89.96
2022-09-12T01:51:07.554Z,89.74
2022-09-12T01:53:46.731Z,89.63
2022-09-12T01:56:25.920Z,89.33
2022-09-12T01:59:11.968Z,89.46
2022-09-12T02:01:55.474Z,89.50
2022-09-12T02:04:34.240Z,89.46
2022-09-12T02:07:22.240Z,89.49
2022-09-12T02:10:09.515Z,89.41
2022-09-12T02:12:47.380Z,89.39
2022-09-12T02:15:20.711Z,89.45
2022-09-12T02:17:54.267Z,89.24
2022-09-12T02:20:47.000Z,89.67
2022-09-12T02:23:29.091Z,89.57
2022-09-12T02:26:08.580Z,89.55
2022-09-12T02:28:42.007Z,89.68
2022-09-12T02:31:33.463Z,89.84
2022-09-12T02:34:28.020Z,90.11
2022-09-12T02:37:06.028Z,90.41
2022-09-12T02:39:33.785Z,90.49
2022-09-12T02:42:03.161Z,90.16
2022-09-12T02:44:32.749Z,90.62
2022-09-12T02:48:00.185Z,90.72
2022-09-12T02:50:28.099Z,90.81
2022-09-12T02:52:59.695Z,90.85
2022-09-12T02:55:30.456Z,91.16
2022-09-12T02:57:57.436Z,90.97
2022-09-12T03:00:26.842Z,90.91
2022-09-12T03:03:21.962Z,91.09
2022-09-12T03:06:00.233Z,90.90
2022-09-12T03:09:14.047Z,91.08
2022-09-12T03:11:47.980Z,90.92
2022-09-12T03:14:48.652Z,90.83
2022-09-12T03:17:45.725Z,90.93
2022-09-12T03:20:50.929Z,90.85
2022-09-12T03:23:29.919Z,91.09
2022-09-12T03:26:10.383Z,90.86
2022-09-12T03:28:41.407Z,90.85
2022-09-12T03:31:16.869Z,90.68
2022-09-12T03:33:45.783Z,90.78
2022-09-12T03:36:28.386Z,90.83
2022-09-12T03:38:55.644Z,90.81
2022-09-12T03:41:22.791Z,90.86
2022-09-12T03:43:49.751Z,90.81
2022-09-12T03:46:16.752Z,90.96
2022-09-12T03:48:44.745Z,91.03
2022-09-12T03:51:11.733Z,91.16
2022-09-12T03:53:39.733Z,91.22
2022-09-12T03:56:10.025Z,91.21
2022-09-12T03:58:38.622Z,91.33
2022-09-12T04:01:15.951Z,91.34
2022-09-12T04:03:46.778Z,91.68
2022-09-12T04:06:16.676Z,91.46
2022-09-12T04:08:50.474Z,91.74
2022-09-12T04:11:20.301Z,91.72
2022-09-12T04:13:48.545Z,91.75
2022-09-12T04:16:17.540Z,91.66
2022-09-12T04:18:45.971Z,91.63
2022-09-12T04:21:18.502Z,91.78
2022-09-12T04:23:45.949Z,91.58
2022-09-12T04:26:15.359Z,91.65
2022-09-12T04:28:42.476Z,91.70
2022-09-12T04:31:17.582Z,91.76
2022-09-12T04:33:45.675Z,91.84
2022-09-12T04:36:17.689Z,91.77
2022-09-12T04:38:47.045Z,91.93
2022-09-12T04:41:23.833Z,91.87
2022-09-12T04:44:03.124Z,91.89
2022-09-12T04:46:34.210Z,92.02
2022-09-12T04:49:05.969Z,91.92
2022-09-12T04:51:37.013Z,91.93
2022-09-12T04:54:15.526Z,91.76
2022-09-12T04:56:47.189Z,91.68
2022-09-12T04:59:17.632Z,91.55
2022-09-12T05:02:10.561Z,91.68
2022-09-12T05:04:42.462Z,91.68
2022-09-12T05:07:09.526Z,91.69
2022-09-12T05:09:36.541Z,91.67
2022-09-12T05:12:05.702Z,91.68
2022-09-12T05:14:34.271Z,91.76
2022-09-12T05:17:02.797Z,91.75
2022-09-12T05:19:32.034Z,91.70
2022-09-12T05:22:00.231Z,91.73
2022-09-12T05:24:31.142Z,91.82
2022-09-12T05:26:59.491Z,91.86
2022-09-12T05:29:26.739Z,92.00
2022-09-12T05:31:54.807Z,91.96
2022-09-12T05:34:22.626Z,91.90
2022-09-12T05:36:49.657Z,91.82
2022-09-12T05:39:16.802Z,91.93
2022-09-12T05:41:44.832Z,92.04
2022-09-12T05:44:14.134Z,91.98
2022-09-12T05:46:44.234Z,92.02
2022-09-12T05:49:15.108Z,91.97
2022-09-12T05:51:45.787Z,91.83
2022-09-12T05:54:19.398Z,91.73
2022-09-12T05:56:47.421Z,91.94
2022-09-12T05:59:21.276Z,91.59
2022-09-12T06:01:49.129Z,91.54
2022-09-12T06:04:17.591Z,91.46
2022-09-12T06:06:46.143Z,91.30
2022-09-12T06:09:16.666Z,91.48
2022-09-12T06:11:45.814Z,91.34
2022-09-12T06:14:16.717Z,91.26
2022-09-12T06:16:44.027Z,91.31
2022-09-12T06:19:20.552Z,91.39
2022-09-12T06:21:49.863Z,91.27
2022-09-12T06:24:18.793Z,91.35
2022-09-12T06:26:47.684Z,91.24
2022-09-12T06:29:15.396Z,91.35
2022-09-12T06:31:43.663Z,91.33
2022-09-12T06:34:14.146Z,91.21
2022-09-12T06:36:46.078Z,91.34
2022-09-12T06:39:19.540Z,91.04
2022-09-12T06:41:48.339Z,91.01
2022-09-12T06:44:19.859Z,91.04
2022-09-12T06:46:47.532Z,90.86
2022-09-12T06:49:14.971Z,91.02
2022-09-12T06:51:43.240Z,90.97
2022-09-12T06:54:15.560Z,90.76
2022-09-12T06:56:42.689Z,90.96
2022-09-12T06:59:10.891Z,90.83
2022-09-12T07:01:38.486Z,90.77
2022-09-12T07:04:05.756Z,90.66
2022-09-12T07:06:42.313Z,90.59
2022-09-12T07:09:16.498Z,90.53
2022-09-12T07:11:45.712Z,90.58
2022-09-12T07:14:15.342Z,90.66
2022-09-12T07:16:43.131Z,90.84
2022-09-12T07:19:12.072Z,90.76
2022-09-12T07:21:40.487Z,90.75
2022-09-12T07:24:10.255Z,90.52
2022-09-12T07:26:40.338Z,90.61
2022-09-12T07:32:01.779Z,89.77
2022-09-12T07:34:28.991Z,90.06
2022-09-12T07:36:56.157Z,89.61
2022-09-12T07:39:23.215Z,89.16
2022-09-12T07:41:51.365Z,89.06
2022-09-12T07:44:18.355Z,88.59
2022-09-12T07:46:45.312Z,88.13
2022-09-12T07:49:12.410Z,87.61
2022-09-12T07:51:41.167Z,87.35
2022-09-12T07:54:09.444Z,87.22
2022-09-12T07:56:39.145Z,86.52
2022-09-12T07:59:08.401Z,85.83
2022-09-12T08:01:35.485Z,85.26
2022-09-12T08:04:04.915Z,84.66
2022-09-12T08:06:35.770Z,84.27
2022-09-12T08:09:05.544Z,83.51
2022-09-12T08:11:32.585Z,82.92
2022-09-12T08:14:01.720Z,82.57
2022-09-12T08:16:31.685Z,82.34
2022-09-12T08:19:01.846Z,81.15
2022-09-12T08:21:32.781Z,80.91
2022-09-12T08:24:06.207Z,80.83
2022-09-12T08:26:34.993Z,79.67
2022-09-12T08:29:02.432Z,80.07
2022-09-12T08:31:36.315Z,79.65
2022-09-12T08:34:07.060Z,79.59
2022-09-12T08:36:35.730Z,77.82
2022-09-12T08:39:07.008Z,77.06
2022-09-12T08:42:02.881Z,76.82
2022-09-12T08:45:15.127Z,77.04
2022-09-12T08:47:46.887Z,77.16
2022-09-12T08:50:22.249Z,76.55
2022-09-12T08:53:16.475Z,75.71
2022-09-12T08:55:53.522Z,75.63
2022-09-12T08:58:27.175Z,75.20
2022-09-12T09:01:09.254Z,75.56
2022-09-12T09:04:09.703Z,75.49
2022-09-12T09:07:06.610Z,74.00
2022-09-12T09:10:00.987Z,73.86
2022-09-12T09:12:51.982Z,73.49
2022-09-12T09:15:34.174Z,73.88
2022-09-12T09:18:28.754Z,73.33
2022-09-12T09:21:30.187Z,73.05
2022-09-12T09:24:10.309Z,71.29
2022-09-12T09:26:58.452Z,71.78
2022-09-12T09:29:44.247Z,71.82
2022-09-12T09:32:38.559Z,70.82
2022-09-12T09:35:36.691Z,70.25
2022-09-12T09:38:44.952Z,69.49
2022-09-12T09:41:39.987Z,69.46
2022-09-12T09:46:36.450Z,69.05
2022-09-12T09:49:07.087Z,68.35
2022-09-12T09:51:38.702Z,68.66
2022-09-12T09:54:21.207Z,67.57
2022-09-12T09:56:48.675Z,67.47
2022-09-12T09:59:15.962Z,66.53
2022-09-12T10:01:55.212Z,65.57
2022-09-12T10:04:26.008Z,64.06
2022-09-12T10:07:02.659Z,64.61
2022-09-12T10:09:34.599Z,64.84
2022-09-12T10:12:29.078Z,64.19
2022-09-12T10:15:00.731Z,65.02
2022-09-12T10:17:34.327Z,64.79
2022-09-12T10:20:21.439Z,64.30
2022-09-12T10:22:50.608Z,62.97
2022-09-12T10:25:24.684Z,63.50
2022-09-12T10:28:00.161Z,62.35
2022-09-12T10:30:28.668Z,62.37
2022-09-12T10:33:15.163Z,60.74
2022-09-12T10:35:49.924Z,61.98
2022-09-12T10:38:30.356Z,60.89
2022-09-12T10:41:03.752Z,61.02
2022-09-12T10:43:33.862Z,61.43
2022-09-12T10:46:28.378Z,60.55
2022-09-12T10:49:38.127Z,59.92
2022-09-12T10:52:37.519Z,59.79
2022-09-12T10:55:14.636Z,59.61
2022-09-12T10:58:21.636Z,59.40
2022-09-12T11:01:03.250Z,58.75
2022-09-12T11:04:12.325Z,57.40
2022-09-12T11:07:41.992Z,57.59
2022-09-12T11:10:27.778Z,57.44
2022-09-12T11:13:20.488Z,56.01
2022-09-12T11:16:30.635Z,55.36
2022-09-12T11:19:09.743Z,54.46
2022-09-12T11:22:02.651Z,53.32
2022-09-12T11:24:43.242Z,53.17
2022-09-12T11:28:02.848Z,53.60
2022-09-12T11:30:51.843Z,53.82
2022-09-12T11:33:30.163Z,52.09
2022-09-12T11:35:57.850Z,51.22
2022-09-12T11:39:16.296Z,52.06
2022-09-12T11:42:00.401Z,50.20
2022-09-12T11:44:41.660Z,50.80
2022-09-12T11:47:13.548Z,51.60
2022-09-12T11:49:50.543Z,49.32
2022-09-12T11:52:24.459Z,49.17
2022-09-12T11:55:08.356Z,48.70
2022-09-12T11:57:54.214Z,48.56
2022-09-12T12:00:42.716Z,49.73
2022-09-12T12:03:32.878Z,48.84
2022-09-12T12:06:10.996Z,49.30
2022-09-12T12:08:43.021Z,49.00
2022-09-12T12:11:39.802Z,47.12
2022-09-12T12:14:19.454Z,48.26
2022-09-12T12:16:47.818Z,48.00
2022-09-12T12:19:14.694Z,46.88
2022-09-12T12:21:47.499Z,47.65
2022-09-12T12:24:21.573Z,47.72
2022-09-12T12:27:22.495Z,44.96
2022-09-12T12:29:49.485Z,46.23
2022-09-12T12:32:16.503Z,46.29
2022-09-12T12:34:46.501Z,44.28
2022-09-12T12:37:22.499Z,44.93
2022-09-12T12:39:50.797Z,45.43
2022-09-12T12:42:35.848Z,43.89
2022-09-12T12:45:08.716Z,44.00
2022-09-12T12:47:38.656Z,43.58
2022-09-12T12:50:19.501Z,44.25
2022-09-12T12:52:50.942Z,44.59
2022-09-12T12:55:26.962Z,44.19
2022-09-12T12:58:04.079Z,43.70
2022-09-12T13:00:40.369Z,43.37
2022-09-12T13:03:07.337Z,43.22
2022-09-12T13:05:58.210Z,43.00
2022-09-12T13:08:59.825Z,43.28
2022-09-12T13:11:45.521Z,42.76
2022-09-12T13:14:42.923Z,42.03
2022-09-12T13:17:34.766Z,41.91
2022-09-12T13:20:53.551Z,42.03
2022-09-12T13:23:39.823Z,41.74
2022-09-12T13:26:25.792Z,41.41
2022-09-12T13:29:24.930Z,41.85
2022-09-12T13:32:01.918Z,42.23
2022-09-12T13:35:04.090Z,42.51
2022-09-12T13:37:51.330Z,41.96
2022-09-12T13:41:07.794Z,41.24
2022-09-12T13:43:53.197Z,41.55
2022-09-12T13:46:40.033Z,41.04
2022-09-12T13:49:33.013Z,41.31
2022-09-12T13:52:05.696Z,41.41
2022-09-12T13:54:38.890Z,41.13
2022-09-12T13:57:41.178Z,41.63
2022-09-12T14:00:28.231Z,42.07
2022-09-12T14:03:30.413Z,41.71
2022-09-12T14:05:57.836Z,42.30
2022-09-12T14:08:25.295Z,41.57
2022-09-12T14:10:52.459Z,41.16
2022-09-12T14:13:39.364Z,42.26
2022-09-12T14:16:09.888Z,41.73
2022-09-12T14:18:39.024Z,41.94
2022-09-12T14:21:35.879Z,41.83
2022-09-12T14:24:08.504Z,42.43
2022-09-12T14:26:40.607Z,41.94
2022-09-12T14:29:08.916Z,41.68
2022-09-12T14:31:39.467Z,41.79
2022-09-12T14:34:18.954Z,42.19
2022-09-12T14:36:55.157Z,42.15
2022-09-12T14:39:39.816Z,42.26
2022-09-12T14:42:34.307Z,41.74
2022-09-12T14:45:13.926Z,41.99
2022-09-12T14:47:50.647Z,41.26
2022-09-12T14:50:24.172Z,41.93
2022-09-12T14:53:06.202Z,41.69
2022-09-12T14:55:42.283Z,41.27
2022-09-12T14:58:29.783Z,41.00
2022-09-12T15:01:15.035Z,39.97
2022-09-12T15:03:46.014Z,40.28
2022-09-12T15:06:31.803Z,41.24
2022-09-12T15:09:05.955Z,42.04
2022-09-12T15:11:33.839Z,42.04
2022-09-12T15:14:15.749Z,41.97
2022-09-12T15:16:42.939Z,41.66
2022-09-12T15:19:10.463Z,41.47
2022-09-12T15:21:37.858Z,41.98
2022-09-12T15:24:05.012Z,42.64
2022-09-12T15:26:32.200Z,42.53
2022-09-12T15:28:59.358Z,42.70
2022-09-12T15:31:30.694Z,42.58
2022-09-12T15:34:01.712Z,42.84
2022-09-12T15:36:29.518Z,42.58
2022-09-12T15:38:57.668Z,42.73
2022-09-12T15:41:36.986Z,42.94
2022-09-12T15:44:07.856Z,43.37
2022-09-12T15:46:36.047Z,43.28
2022-09-12T15:49:03.375Z,42.89
2022-09-12T15:51:30.379Z,42.52
2022-09-12T15:53:57.478Z,42.68
2022-09-12T15:56:24.511Z,43.20
2022-09-12T15:59:00.024Z,43.11
2022-09-12T16:01:29.399Z,43.38
2022-09-12T16:03:56.896Z,43.37
2022-09-12T16:06:33.546Z,43.40
2022-09-12T16:09:03.655Z,42.75
2022-09-12T16:11:31.020Z,42.90
2022-09-12T16:13:58.288Z,43.52
2022-09-12T16:16:25.475Z,44.03
2022-09-12T16:18:52.579Z,44.46
2022-09-12T16:21:19.759Z,44.63
2022-09-12T16:23:47.918Z,44.57
2022-09-12T16:26:21.217Z,44.90
2022-09-12T16:28:56.189Z,44.90
2022-09-12T16:31:23.468Z,44.91
2022-09-12T16:33:51.003Z,44.43
2022-09-12T16:36:21.508Z,44.86
2022-09-12T16:38:53.059Z,45.05
2022-09-12T16:41:26.904Z,45.37
2022-09-12T16:43:55.553Z,45.68
2022-09-12T16:46:28.684Z,45.62
2022-09-12T16:48:58.685Z,46.00
2022-09-12T16:51:31.169Z,45.84
2022-09-12T16:53:58.453Z,46.25
2022-09-12T16:56:26.477Z,46.74
2022-09-12T16:58:54.517Z,47.20
2022-09-12T17:01:25.448Z,47.38
2022-09-12T17:03:55.245Z,47.99
2022-09-12T17:06:25.126Z,48.00
2022-09-12T17:08:55.985Z,48.29
2022-09-12T17:11:33.263Z,48.41
2022-09-12T17:14:06.402Z,48.83
2022-09-12T17:16:48.015Z,49.50
2022-09-12T17:19:22.121Z,49.67
2022-09-12T17:21:50.343Z,49.88
2022-09-12T17:24:18.353Z,50.19
2022-09-12T17:26:46.889Z,50.40
2022-09-12T17:29:17.634Z,50.85
2022-09-12T17:31:45.603Z,51.20
2022-09-12T17:34:14.642Z,51.56
2022-09-12T17:36:44.573Z,51.94
2022-09-12T17:39:13.900Z,52.68
2022-09-12T17:41:46.184Z,52.95
2022-09-12T17:44:15.570Z,53.91
2022-09-12T17:46:43.569Z,53.94
2022-09-12T17:49:17.301Z,54.56
2022-09-12T17:51:44.790Z,54.54
2022-09-12T17:54:16.498Z,54.96
2022-09-12T17:56:49.699Z,55.20
2022-09-12T17:59:21.423Z,55.94
2022-09-12T18:02:07.780Z,56.24
2022-09-12T18:04:35.494Z,56.17
2022-09-12T18:07:02.500Z,56.33
2022-09-12T18:09:30.599Z,56.92
2022-09-12T18:11:58.313Z,56.65
2022-09-12T18:14:28.525Z,56.87
2022-09-12T18:16:57.371Z,56.84
2022-09-12T18:19:24.905Z,57.54
2022-09-12T18:21:55.947Z,57.77
2022-09-12T18:24:23.067Z,58.05
2022-09-12T18:26:50.496Z,58.48
2022-09-12T18:29:19.554Z,58.49
2022-09-12T18:31:46.789Z,58.67
2022-09-12T18:34:15.845Z,58.87
2022-09-12T18:36:47.639Z,58.84
2022-09-12T18:39:16.110Z,59.38
2022-09-12T18:41:44.584Z,59.91
2022-09-12T18:44:14.370Z,59.91
2022-09-12T18:46:42.731Z,60.54
2022-09-12T18:49:35.025Z,60.46
2022-09-12T18:52:26.694Z,60.83
2022-09-12T18:54:53.804Z,60.94
2022-09-12T18:57:20.717Z,61.61
2022-09-12T18:59:47.795Z,62.03
2022-09-12T19:02:18.831Z,62.25
2022-09-12T19:04:45.755Z,62.34
2022-09-12T19:07:12.758Z,62.36
2022-09-12T19:09:39.786Z,62.82
2022-09-12T19:12:10.290Z,63.36
2022-09-12T19:14:37.322Z,63.13
2022-09-12T19:17:07.077Z,63.27
2022-09-12T19:19:36.639Z,63.77
2022-09-12T19:22:12.978Z,63.84
2022-09-12T19:24:40.275Z,64.35
2022-09-12T19:27:07.708Z,64.74
2022-09-12T19:29:34.711Z,65.30
2022-09-12T19:32:01.971Z,65.11
2022-09-12T19:34:29.006Z,65.75
2022-09-12T19:36:59.290Z,65.74
2022-09-12T19:39:26.343Z,66.03
2022-09-12T19:41:53.393Z,66.63
2022-09-12T19:44:20.538Z,67.02
2022-09-12T19:46:47.737Z,67.31
2022-09-12T19:49:14.992Z,67.71
2022-09-12T19:51:42.083Z,68.09
2022-09-12T19:54:09.581Z,68.10
2022-09-12T19:56:36.723Z,68.28
2022-09-12T19:59:04.820Z,68.60
2022-09-12T20:01:36.784Z,68.52
2022-09-12T20:04:05.147Z,68.51
2022-09-12T20:06:32.395Z,68.57
2022-09-12T20:08:59.909Z,68.47
2022-09-12T20:11:26.914Z,68.82
2022-09-12T20:13:54.212Z,69.00
2022-09-12T20:16:29.326Z,69.22
2022-09-12T20:19:07.144Z,69.44
2022-09-12T20:21:36.206Z,69.58
2022-09-12T20:24:11.283Z,69.78
2022-09-12T20:26:41.193Z,70.20
2022-09-12T20:29:10.075Z,70.12
2022-09-12T20:31:40.413Z,70.34
2022-09-12T20:34:14.698Z,70.43
2022-09-12T20:36:42.209Z,70.84
2022-09-12T20:39:16.406Z,71.37
2022-09-12T20:41:43.674Z,71.22
2022-09-12T20:44:10.981Z,71.52
2022-09-12T20:46:38.429Z,71.64
2022-09-12T20:49:06.563Z,71.51
2022-09-12T20:51:36.438Z,72.15
2022-09-12T20:54:06.431Z,72.15
2022-09-12T20:56:36.299Z,72.06
2022-09-12T20:59:04.954Z,72.27
2022-09-12T21:01:32.596Z,72.49
2022-09-12T21:04:01.168Z,72.60
2022-09-12T21:06:28.754Z,72.53
2022-09-12T21:09:00.346Z,72.71
2022-09-12T21:11:28.558Z,72.75
2022-09-12T21:13:55.896Z,72.63
2022-09-12T21:16:23.796Z,73.25
2022-09-12T21:18:57.849Z,73.03
2022-09-12T21:21:26.350Z,73.16
2022-09-12T21:23:56.977Z,73.36
2022-09-12T21:26:24.428Z,73.47
2022-09-12T21:28:51.402Z,73.57
2022-09-12T21:31:18.569Z,73.38
2022-09-12T21:33:45.827Z,73.55
2022-09-12T21:36:12.926Z,74.02
2022-09-12T21:38:39.880Z,74.07
2022-09-12T21:41:13.935Z,74.52
2022-09-12T21:43:43.087Z,74.52
2022-09-12T21:46:11.197Z,74.78
2022-09-12T21:48:39.295Z,74.79
2022-09-12T21:51:06.955Z,74.77
2022-09-12T21:53:34.529Z,75.29
2022-09-12T21:56:07.448Z,75.35
2022-09-12T21:58:35.441Z,75.60
2022-09-12T22:01:03.387Z,75.65
2022-09-12T22:03:30.599Z,75.54
2022-09-12T22:06:04.001Z,75.77
2022-09-12T22:08:33.701Z,75.92
2022-09-12T22:11:05.095Z,75.88
2022-09-12T22:13:32.370Z,75.97
2022-09-12T22:16:02.829Z,76.08
2022-09-12T22:18:33.857Z,76.08
2022-09-12T22:21:06.437Z,76.23
2022-09-12T22:23:52.315Z,76.24
2022-09-12T22:26:20.478Z,76.14
2022-09-12T22:28:47.713Z,76.35
2022-09-12T22:31:16.030Z,76.53
2022-09-12T22:33:43.654Z,76.44
2022-09-12T22:36:12.005Z,76.51
2022-09-12T22:38:39.806Z,76.54
2022-09-12T22:41:11.257Z,76.13
2022-09-12T22:43:39.155Z,76.51
2022-09-12T22:46:09.447Z,76.63
2022-09-12T22:48:37.737Z,76.46
2022-09-12T22:51:05.579Z,76.67
2022-09-12T22:53:32.898Z,76.39
2022-09-12T22:55:59.854Z,76.44
2022-09-12T22:58:27.010Z,76.36
2022-09-12T23:00:54.273Z,76.47
2022-09-12T23:03:22.521Z,76.38
2022-09-12T23:05:49.859Z,76.53
2022-09-12T23:08:19.307Z,76.60
2022-09-12T23:10:46.765Z,76.86
2022-09-12T23:13:13.995Z,76.99
2022-09-12T23:15:41.069Z,76.91
2022-09-12T23:18:08.470Z,77.20
2022-09-12T23:20:35.512Z,77.24
2022-09-12T23:23:02.839Z,77.48
2022-09-12T23:25:32.186Z,77.32
2022-09-12T23:27:59.211Z,77.30
2022-09-12T23:30:26.250Z,77.37
2022-09-12T23:32:53.210Z,77.36
2022-09-12T23:35:20.221Z,77.44
2022-09-12T23:37:47.650Z,77.46
2022-09-12T23:40:14.875Z,77.42
2022-09-12T23:42:41.930Z,77.59
2022-09-12T23:45:10.279Z,77.48
2022-09-12T23:47:37.383Z,77.57
2022-09-12T23:50:06.047Z,77.97
2022-09-12T23:52:32.962Z,77.62
2022-09-12T23:55:00.000Z,78.25
2022-09-12T23:57:27.021Z,78.54
2022-09-12T23:59:54.056Z,78.48
